sensor_id;sensor_type;location;lat;lon;timestamp;P1;durP1;ratioP1;P2;durP2;ratioP2
20138;SDS011;10230;51.502;10.800;2023-01-01T00:02:17;7.18;;;3.55;;
20138;SDS011;10230;51.502;10.800;2023-01-01T00:04:43;6.23;;;3.27;;
20138;SDS011;10230;51.502;10.800;2023-01-01T00:07:09;6.38;;;3.17;;
20138;SDS011;10230;51.502;10.800;2023-01-01T00:09:35;9.98;;;4.07;;
20138;SDS011;10230;51.502;10.800;2023-01-01T00:12:20;5.70;;;3.37;;
20138;SDS011;10230;51.502;10.800;2023-01-01T00:14:46;6.33;;;2.37;;
20138;SDS011;10230;51.502;10.800;2023-01-01T00:17:12;6.17;;;2.30;;
20138;SDS011;10230;51.502;10.800;2023-01-01T00:19:38;9.88;;;2.17;;
20138;SDS011;10230;51.502;10.800;2023-01-01T00:22:04;4.80;;;1.60;;
20138;SDS011;10230;51.502;10.800;2023-01-01T00:24:30;5.23;;;1.50;;
20138;SDS011;10230;51.502;10.800;2023-01-01T00:26:56;3.37;;;1.40;;
20138;SDS011;10230;51.502;10.800;2023-01-01T00:29:22;4.90;;;1.50;;
20138;SDS011;10230;51.502;10.800;2023-01-01T00:31:48;4.40;;;1.40;;
20138;SDS011;10230;51.502;10.800;2023-01-01T00:34:14;4.40;;;2.00;;
20138;SDS011;10230;51.502;10.800;2023-01-01T00:36:40;4.17;;;1.50;;
20138;SDS011;10230;51.502;10.800;2023-01-01T00:39:06;3.17;;;1.55;;
20138;SDS011;10230;51.502;10.800;2023-01-01T00:41:32;3.80;;;1.60;;
20138;SDS011;10230;51.502;10.800;2023-01-01T00:43:59;8.80;;;2.13;;
20138;SDS011;10230;51.502;10.800;2023-01-01T00:46:25;3.73;;;1.33;;
20138;SDS011;10230;51.502;10.800;2023-01-01T00:48:51;5.53;;;2.03;;
20138;SDS011;10230;51.502;10.800;2023-01-01T00:51:17;5.80;;;1.83;;
20138;SDS011;10230;51.502;10.800;2023-01-01T00:53:43;4.90;;;1.20;;
20138;SDS011;10230;51.502;10.800;2023-01-01T00:56:09;3.67;;;1.30;;
20138;SDS011;10230;51.502;10.800;2023-01-01T00:58:35;3.87;;;1.40;;
20138;SDS011;10230;51.502;10.800;2023-01-01T01:01:01;6.33;;;2.40;;
20138;SDS011;10230;51.502;10.800;2023-01-01T01:03:27;2.90;;;1.43;;
20138;SDS011;10230;51.502;10.800;2023-01-01T01:08:20;3.53;;;1.50;;
20138;SDS011;10230;51.502;10.800;2023-01-01T01:10:46;2.23;;;1.37;;
20138;SDS011;10230;51.502;10.800;2023-01-01T01:13:12;3.78;;;1.40;;
20138;SDS011;10230;51.502;10.800;2023-01-01T01:15:38;3.45;;;1.30;;
20138;SDS011;10230;51.502;10.800;2023-01-01T01:18:04;6.17;;;1.77;;
20138;SDS011;10230;51.502;10.800;2023-01-01T01:20:30;2.30;;;1.23;;
20138;SDS011;10230;51.502;10.800;2023-01-01T01:22:57;4.40;;;2.50;;
20138;SDS011;10230;51.502;10.800;2023-01-01T01:25:23;5.57;;;1.80;;
20138;SDS011;10230;51.502;10.800;2023-01-01T01:27:49;3.53;;;1.20;;
20138;SDS011;10230;51.502;10.800;2023-01-01T01:30:15;3.33;;;1.20;;
20138;SDS011;10230;51.502;10.800;2023-01-01T01:32:41;2.37;;;1.50;;
20138;SDS011;10230;51.502;10.800;2023-01-01T01:35:07;2.63;;;1.40;;
20138;SDS011;10230;51.502;10.800;2023-01-01T01:37:33;4.93;;;2.00;;
20138;SDS011;10230;51.502;10.800;2023-01-01T01:39:59;6.33;;;1.47;;
20138;SDS011;10230;51.502;10.800;2023-01-01T01:42:25;5.13;;;1.53;;
20138;SDS011;10230;51.502;10.800;2023-01-01T01:44:53;7.60;;;2.70;;
20138;SDS011;10230;51.502;10.800;2023-01-01T01:49:48;3.60;;;2.00;;
20138;SDS011;10230;51.502;10.800;2023-01-01T01:52:17;5.07;;;1.70;;
20138;SDS011;10230;51.502;10.800;2023-01-01T01:54:44;3.60;;;2.47;;
20138;SDS011;10230;51.502;10.800;2023-01-01T01:57:10;4.93;;;1.47;;
20138;SDS011;10230;51.502;10.800;2023-01-01T01:59:39;2.80;;;1.10;;
20138;SDS011;10230;51.502;10.800;2023-01-01T02:02:09;2.67;;;1.63;;
20138;SDS011;10230;51.502;10.800;2023-01-01T02:04:39;2.93;;;1.30;;
20138;SDS011;10230;51.502;10.800;2023-01-01T02:07:06;3.38;;;1.27;;
20138;SDS011;10230;51.502;10.800;2023-01-01T02:09:32;3.63;;;0.97;;
20138;SDS011;10230;51.502;10.800;2023-01-01T02:11:58;2.13;;;1.02;;
20138;SDS011;10230;51.502;10.800;2023-01-01T02:14:24;2.80;;;1.13;;
20138;SDS011;10230;51.502;10.800;2023-01-01T02:16:57;2.40;;;1.30;;
20138;SDS011;10230;51.502;10.800;2023-01-01T02:22:16;3.53;;;1.10;;
20138;SDS011;10230;51.502;10.800;2023-01-01T02:29:57;3.77;;;1.50;;
20138;SDS011;10230;51.502;10.800;2023-01-01T02:32:30;4.23;;;1.20;;
20138;SDS011;10230;51.502;10.800;2023-01-01T02:35:03;2.40;;;1.00;;
20138;SDS011;10230;51.502;10.800;2023-01-01T02:37:49;1.83;;;0.93;;
20138;SDS011;10230;51.502;10.800;2023-01-01T02:40:15;2.13;;;1.00;;
20138;SDS011;10230;51.502;10.800;2023-01-01T02:42:43;5.40;;;1.87;;
20138;SDS011;10230;51.502;10.800;2023-01-01T02:45:09;3.93;;;1.30;;
20138;SDS011;10230;51.502;10.800;2023-01-01T02:47:36;3.00;;;1.93;;
20138;SDS011;10230;51.502;10.800;2023-01-01T02:50:19;5.43;;;1.67;;
20138;SDS011;10230;51.502;10.800;2023-01-01T02:58:03;1.90;;;1.20;;
20138;SDS011;10230;51.502;10.800;2023-01-01T03:00:53;2.83;;;1.10;;
20138;SDS011;10230;51.502;10.800;2023-01-01T03:03:28;4.28;;;1.50;;
20138;SDS011;10230;51.502;10.800;2023-01-01T03:08:46;4.63;;;1.43;;
20138;SDS011;10230;51.502;10.800;2023-01-01T03:11:14;6.30;;;2.10;;
20138;SDS011;10230;51.502;10.800;2023-01-01T03:13:44;2.47;;;1.20;;
20138;SDS011;10230;51.502;10.800;2023-01-01T03:16:17;4.60;;;1.50;;
20138;SDS011;10230;51.502;10.800;2023-01-01T03:21:13;4.43;;;1.33;;
20138;SDS011;10230;51.502;10.800;2023-01-01T03:23:44;5.77;;;2.93;;
20138;SDS011;10230;51.502;10.800;2023-01-01T03:26:12;4.87;;;1.43;;
20138;SDS011;10230;51.502;10.800;2023-01-01T03:28:42;1.90;;;1.30;;
20138;SDS011;10230;51.502;10.800;2023-01-01T03:31:09;5.30;;;1.40;;
20138;SDS011;10230;51.502;10.800;2023-01-01T03:33:37;4.27;;;1.50;;
20138;SDS011;10230;51.502;10.800;2023-01-01T03:36:05;3.90;;;1.60;;
20138;SDS011;10230;51.502;10.800;2023-01-01T03:41:50;2.70;;;1.70;;
20138;SDS011;10230;51.502;10.800;2023-01-01T03:43:52;3.90;;;1.60;;
20138;SDS011;10230;51.502;10.800;2023-01-01T03:46:21;3.03;;;1.70;;
20138;SDS011;10230;51.502;10.800;2023-01-01T03:48:49;4.00;;;2.10;;
20138;SDS011;10230;51.502;10.800;2023-01-01T03:54:07;2.60;;;1.30;;
20138;SDS011;10230;51.502;10.800;2023-01-01T03:56:44;2.43;;;1.60;;
20138;SDS011;10230;51.502;10.800;2023-01-01T03:59:14;3.07;;;1.90;;
20138;SDS011;10230;51.502;10.800;2023-01-01T04:01:44;3.60;;;1.50;;
20138;SDS011;10230;51.502;10.800;2023-01-01T04:04:11;4.53;;;1.98;;
20138;SDS011;10230;51.502;10.800;2023-01-01T04:06:38;4.30;;;1.83;;
20138;SDS011;10230;51.502;10.800;2023-01-01T04:09:04;2.20;;;1.67;;
20138;SDS011;10230;51.502;10.800;2023-01-01T04:11:33;6.00;;;1.83;;
20138;SDS011;10230;51.502;10.800;2023-01-01T04:14:25;2.50;;;1.70;;
20138;SDS011;10230;51.502;10.800;2023-01-01T04:16:52;4.03;;;2.33;;
20138;SDS011;10230;51.502;10.800;2023-01-01T04:19:18;4.07;;;2.13;;
20138;SDS011;10230;51.502;10.800;2023-01-01T04:21:44;4.67;;;2.80;;
20138;SDS011;10230;51.502;10.800;2023-01-01T04:24:10;4.00;;;1.90;;
20138;SDS011;10230;51.502;10.800;2023-01-01T04:26:36;3.30;;;1.90;;
20138;SDS011;10230;51.502;10.800;2023-01-01T04:29:02;5.00;;;2.70;;
20138;SDS011;10230;51.502;10.800;2023-01-01T04:31:28;3.27;;;1.90;;
20138;SDS011;10230;51.502;10.800;2023-01-01T04:33:54;2.33;;;1.70;;
20138;SDS011;10230;51.502;10.800;2023-01-01T04:36:20;5.83;;;2.27;;
20138;SDS011;10230;51.502;10.800;2023-01-01T04:38:46;5.00;;;2.30;;
20138;SDS011;10230;51.502;10.800;2023-01-01T04:41:12;5.73;;;2.63;;
20138;SDS011;10230;51.502;10.800;2023-01-01T04:43:39;4.87;;;2.23;;
20138;SDS011;10230;51.502;10.800;2023-01-01T04:46:05;4.10;;;2.03;;
20138;SDS011;10230;51.502;10.800;2023-01-01T04:48:31;4.57;;;2.05;;
20138;SDS011;10230;51.502;10.800;2023-01-01T04:51:00;4.83;;;2.30;;
20138;SDS011;10230;51.502;10.800;2023-01-01T04:53:28;3.17;;;2.27;;
20138;SDS011;10230;51.502;10.800;2023-01-01T04:55:54;5.57;;;2.27;;
20138;SDS011;10230;51.502;10.800;2023-01-01T04:58:21;3.90;;;1.90;;
20138;SDS011;10230;51.502;10.800;2023-01-01T05:00:48;4.43;;;2.50;;
20138;SDS011;10230;51.502;10.800;2023-01-01T05:03:14;3.67;;;1.97;;
20138;SDS011;10230;51.502;10.800;2023-01-01T05:05:40;3.88;;;2.33;;
20138;SDS011;10230;51.502;10.800;2023-01-01T05:08:06;2.67;;;2.00;;
20138;SDS011;10230;51.502;10.800;2023-01-01T05:10:32;7.30;;;2.43;;
20138;SDS011;10230;51.502;10.800;2023-01-01T05:12:59;4.97;;;2.30;;
20138;SDS011;10230;51.502;10.800;2023-01-01T05:15:25;3.60;;;2.47;;
20138;SDS011;10230;51.502;10.800;2023-01-01T05:17:52;5.47;;;2.53;;
20138;SDS011;10230;51.502;10.800;2023-01-01T05:20:18;7.20;;;2.70;;
20138;SDS011;10230;51.502;10.800;2023-01-01T05:22:45;5.30;;;2.10;;
20138;SDS011;10230;51.502;10.800;2023-01-01T05:25:11;4.47;;;2.37;;
20138;SDS011;10230;51.502;10.800;2023-01-01T05:27:37;5.73;;;2.83;;
20138;SDS011;10230;51.502;10.800;2023-01-01T05:30:03;4.77;;;2.67;;
20138;SDS011;10230;51.502;10.800;2023-01-01T05:32:29;4.67;;;1.90;;
20138;SDS011;10230;51.502;10.800;2023-01-01T05:34:55;5.13;;;2.90;;
20138;SDS011;10230;51.502;10.800;2023-01-01T05:37:21;4.20;;;2.27;;
20138;SDS011;10230;51.502;10.800;2023-01-01T05:39:47;4.00;;;2.30;;
20138;SDS011;10230;51.502;10.800;2023-01-01T05:42:14;5.43;;;2.63;;
20138;SDS011;10230;51.502;10.800;2023-01-01T05:44:40;3.53;;;2.33;;
20138;SDS011;10230;51.502;10.800;2023-01-01T05:47:06;5.93;;;2.60;;
20138;SDS011;10230;51.502;10.800;2023-01-01T05:49:32;3.37;;;2.40;;
20138;SDS011;10230;51.502;10.800;2023-01-01T05:52:00;6.77;;;3.03;;
20138;SDS011;10230;51.502;10.800;2023-01-01T05:54:26;5.97;;;2.93;;
20138;SDS011;10230;51.502;10.800;2023-01-01T05:56:52;5.47;;;2.27;;
20138;SDS011;10230;51.502;10.800;2023-01-01T05:59:18;6.40;;;2.57;;
20138;SDS011;10230;51.502;10.800;2023-01-01T06:01:44;6.90;;;3.47;;
20138;SDS011;10230;51.502;10.800;2023-01-01T06:04:10;4.73;;;2.97;;
20138;SDS011;10230;51.502;10.800;2023-01-01T06:06:36;5.23;;;3.50;;
20138;SDS011;10230;51.502;10.800;2023-01-01T06:09:03;4.90;;;2.60;;
20138;SDS011;10230;51.502;10.800;2023-01-01T06:11:29;4.50;;;2.95;;
20138;SDS011;10230;51.502;10.800;2023-01-01T06:13:57;6.23;;;2.50;;
20138;SDS011;10230;51.502;10.800;2023-01-01T06:16:23;6.17;;;2.97;;
20138;SDS011;10230;51.502;10.800;2023-01-01T06:18:50;3.93;;;2.47;;
20138;SDS011;10230;51.502;10.800;2023-01-01T06:21:17;4.70;;;2.63;;
20138;SDS011;10230;51.502;10.800;2023-01-01T06:23:43;4.83;;;2.73;;
20138;SDS011;10230;51.502;10.800;2023-01-01T06:26:13;3.20;;;2.50;;
20138;SDS011;10230;51.502;10.800;2023-01-01T06:28:40;3.50;;;2.17;;
20138;SDS011;10230;51.502;10.800;2023-01-01T06:31:07;5.70;;;2.77;;
20138;SDS011;10230;51.502;10.800;2023-01-01T06:33:33;7.33;;;3.13;;
20138;SDS011;10230;51.502;10.800;2023-01-01T06:36:03;4.10;;;3.07;;
20138;SDS011;10230;51.502;10.800;2023-01-01T06:38:30;6.10;;;2.63;;
20138;SDS011;10230;51.502;10.800;2023-01-01T06:40:57;3.90;;;2.20;;
20138;SDS011;10230;51.502;10.800;2023-01-01T06:43:23;7.30;;;2.67;;
20138;SDS011;10230;51.502;10.800;2023-01-01T06:46:06;4.97;;;2.77;;
20138;SDS011;10230;51.502;10.800;2023-01-01T06:48:33;6.90;;;2.50;;
20138;SDS011;10230;51.502;10.800;2023-01-01T06:51:10;4.60;;;2.30;;
20138;SDS011;10230;51.502;10.800;2023-01-01T06:53:36;4.83;;;2.53;;
20138;SDS011;10230;51.502;10.800;2023-01-01T06:56:03;11.17;;;3.80;;
20138;SDS011;10230;51.502;10.800;2023-01-01T06:58:29;5.83;;;2.40;;
20138;SDS011;10230;51.502;10.800;2023-01-01T07:03:36;4.90;;;2.57;;
20138;SDS011;10230;51.502;10.800;2023-01-01T07:06:03;4.17;;;2.20;;
20138;SDS011;10230;51.502;10.800;2023-01-01T07:08:29;4.50;;;2.40;;
20138;SDS011;10230;51.502;10.800;2023-01-01T07:10:55;6.35;;;2.08;;
20138;SDS011;10230;51.502;10.800;2023-01-01T07:13:25;5.33;;;1.97;;
20138;SDS011;10230;51.502;10.800;2023-01-01T07:15:51;5.57;;;2.00;;
20138;SDS011;10230;51.502;10.800;2023-01-01T07:18:18;6.17;;;2.67;;
20138;SDS011;10230;51.502;10.800;2023-01-01T07:20:47;4.47;;;1.80;;
20138;SDS011;10230;51.502;10.800;2023-01-01T07:23:13;4.10;;;1.70;;
20138;SDS011;10230;51.502;10.800;2023-01-01T07:25:39;2.53;;;1.27;;
20138;SDS011;10230;51.502;10.800;2023-01-01T07:28:06;5.85;;;1.98;;
20138;SDS011;10230;51.502;10.800;2023-01-01T07:30:33;3.83;;;1.90;;
20138;SDS011;10230;51.502;10.800;2023-01-01T07:32:59;4.37;;;1.73;;
20138;SDS011;10230;51.502;10.800;2023-01-01T07:35:25;4.97;;;1.77;;
20138;SDS011;10230;51.502;10.800;2023-01-01T07:37:51;4.80;;;2.43;;
20138;SDS011;10230;51.502;10.800;2023-01-01T07:40:17;4.67;;;1.73;;
20138;SDS011;10230;51.502;10.800;2023-01-01T07:42:43;2.83;;;1.50;;
20138;SDS011;10230;51.502;10.800;2023-01-01T07:45:10;5.53;;;2.00;;
20138;SDS011;10230;51.502;10.800;2023-01-01T07:47:36;4.57;;;1.53;;
20138;SDS011;10230;51.502;10.800;2023-01-01T07:50:03;2.03;;;1.30;;
20138;SDS011;10230;51.502;10.800;2023-01-01T07:52:29;3.30;;;1.60;;
20138;SDS011;10230;51.502;10.800;2023-01-01T07:54:55;3.35;;;1.38;;
20138;SDS011;10230;51.502;10.800;2023-01-01T07:57:21;2.75;;;1.52;;
20138;SDS011;10230;51.502;10.800;2023-01-01T07:59:47;4.10;;;1.60;;
20138;SDS011;10230;51.502;10.800;2023-01-01T08:02:13;2.80;;;1.50;;
20138;SDS011;10230;51.502;10.800;2023-01-01T08:04:40;1.77;;;1.27;;
20138;SDS011;10230;51.502;10.800;2023-01-01T08:07:06;1.83;;;1.10;;
20138;SDS011;10230;51.502;10.800;2023-01-01T08:09:32;2.57;;;1.37;;
20138;SDS011;10230;51.502;10.800;2023-01-01T08:11:58;5.22;;;1.30;;
20138;SDS011;10230;51.502;10.800;2023-01-01T08:14:24;3.63;;;1.33;;
20138;SDS011;10230;51.502;10.800;2023-01-01T08:16:50;3.30;;;1.50;;
20138;SDS011;10230;51.502;10.800;2023-01-01T08:19:16;1.65;;;0.95;;
20138;SDS011;10230;51.502;10.800;2023-01-01T08:21:42;2.63;;;1.17;;
20138;SDS011;10230;51.502;10.800;2023-01-01T08:24:08;3.05;;;1.65;;
20138;SDS011;10230;51.502;10.800;2023-01-01T08:26:34;2.55;;;1.20;;
20138;SDS011;10230;51.502;10.800;2023-01-01T08:29:02;8.10;;;1.35;;
20138;SDS011;10230;51.502;10.800;2023-01-01T08:31:29;2.57;;;1.00;;
20138;SDS011;10230;51.502;10.800;2023-01-01T08:33:55;1.73;;;1.20;;
20138;SDS011;10230;51.502;10.800;2023-01-01T08:36:21;2.58;;;1.20;;
20138;SDS011;10230;51.502;10.800;2023-01-01T08:38:47;3.15;;;1.23;;
20138;SDS011;10230;51.502;10.800;2023-01-01T08:41:13;3.67;;;1.27;;
20138;SDS011;10230;51.502;10.800;2023-01-01T08:43:39;2.63;;;1.23;;
20138;SDS011;10230;51.502;10.800;2023-01-01T08:46:05;3.38;;;1.70;;
20138;SDS011;10230;51.502;10.800;2023-01-01T08:48:31;3.20;;;2.38;;
20138;SDS011;10230;51.502;10.800;2023-01-01T08:50:58;3.45;;;1.63;;
20138;SDS011;10230;51.502;10.800;2023-01-01T08:53:25;2.45;;;1.10;;
20138;SDS011;10230;51.502;10.800;2023-01-01T08:55:58;2.67;;;1.35;;
20138;SDS011;10230;51.502;10.800;2023-01-01T08:58:25;2.20;;;1.17;;
20138;SDS011;10230;51.502;10.800;2023-01-01T09:00:51;2.30;;;1.63;;
20138;SDS011;10230;51.502;10.800;2023-01-01T09:03:17;5.95;;;1.40;;
20138;SDS011;10230;51.502;10.800;2023-01-01T09:05:43;5.20;;;1.27;;
20138;SDS011;10230;51.502;10.800;2023-01-01T09:08:13;1.23;;;0.98;;
20138;SDS011;10230;51.502;10.800;2023-01-01T09:10:39;3.45;;;1.20;;
20138;SDS011;10230;51.502;10.800;2023-01-01T09:13:07;4.88;;;1.77;;
20138;SDS011;10230;51.502;10.800;2023-01-01T09:15:33;5.25;;;2.58;;
20138;SDS011;10230;51.502;10.800;2023-01-01T09:17:59;3.25;;;2.22;;
20138;SDS011;10230;51.502;10.800;2023-01-01T09:20:25;7.15;;;2.67;;
20138;SDS011;10230;51.502;10.800;2023-01-01T09:22:51;4.95;;;1.38;;
20138;SDS011;10230;51.502;10.800;2023-01-01T09:25:17;2.33;;;1.38;;
20138;SDS011;10230;51.502;10.800;2023-01-01T09:27:44;3.58;;;1.40;;
20138;SDS011;10230;51.502;10.800;2023-01-01T09:30:10;3.15;;;1.45;;
20138;SDS011;10230;51.502;10.800;2023-01-01T09:32:36;2.15;;;1.00;;
20138;SDS011;10230;51.502;10.800;2023-01-01T09:35:03;3.53;;;1.08;;
20138;SDS011;10230;51.502;10.800;2023-01-01T09:37:29;2.42;;;1.60;;
20138;SDS011;10230;51.502;10.800;2023-01-01T09:39:55;2.85;;;1.33;;
20138;SDS011;10230;51.502;10.800;2023-01-01T09:42:39;3.45;;;3.15;;
20138;SDS011;10230;51.502;10.800;2023-01-01T09:47:50;3.35;;;1.15;;
20138;SDS011;10230;51.502;10.800;2023-01-01T09:50:21;3.20;;;1.33;;
20138;SDS011;10230;51.502;10.800;2023-01-01T09:52:52;3.08;;;1.05;;
20138;SDS011;10230;51.502;10.800;2023-01-01T09:55:27;5.28;;;1.30;;
20138;SDS011;10230;51.502;10.800;2023-01-01T09:57:54;4.57;;;1.17;;
20138;SDS011;10230;51.502;10.800;2023-01-01T10:00:21;3.33;;;1.20;;
20138;SDS011;10230;51.502;10.800;2023-01-01T10:11:04;2.80;;;1.17;;
20138;SDS011;10230;51.502;10.800;2023-01-01T10:13:35;3.83;;;1.38;;
20138;SDS011;10230;51.502;10.800;2023-01-01T10:16:03;1.70;;;0.93;;
20138;SDS011;10230;51.502;10.800;2023-01-01T10:18:33;2.97;;;1.05;;
20138;SDS011;10230;51.502;10.800;2023-01-01T10:21:04;3.13;;;1.13;;
20138;SDS011;10230;51.502;10.800;2023-01-01T10:23:33;3.60;;;1.47;;
20138;SDS011;10230;51.502;10.800;2023-01-01T10:26:02;3.10;;;1.83;;
20138;SDS011;10230;51.502;10.800;2023-01-01T10:31:48;8.48;;;2.10;;
20138;SDS011;10230;51.502;10.800;2023-01-01T10:33:55;4.13;;;1.37;;
20138;SDS011;10230;51.502;10.800;2023-01-01T10:36:21;5.32;;;1.67;;
20138;SDS011;10230;51.502;10.800;2023-01-01T10:38:47;2.83;;;1.10;;
20138;SDS011;10230;51.502;10.800;2023-01-01T10:41:14;1.85;;;1.10;;
20138;SDS011;10230;51.502;10.800;2023-01-01T10:43:41;4.37;;;1.27;;
20138;SDS011;10230;51.502;10.800;2023-01-01T10:46:09;3.60;;;1.52;;
20138;SDS011;10230;51.502;10.800;2023-01-01T10:48:37;2.78;;;1.58;;
20138;SDS011;10230;51.502;10.800;2023-01-01T10:51:06;4.43;;;1.52;;
20138;SDS011;10230;51.502;10.800;2023-01-01T10:53:41;3.87;;;1.30;;
20138;SDS011;10230;51.502;10.800;2023-01-01T10:56:15;4.18;;;1.27;;
20138;SDS011;10230;51.502;10.800;2023-01-01T10:58:45;2.65;;;1.10;;
20138;SDS011;10230;51.502;10.800;2023-01-01T11:01:25;3.50;;;1.40;;
20138;SDS011;10230;51.502;10.800;2023-01-01T11:03:59;1.63;;;1.10;;
20138;SDS011;10230;51.502;10.800;2023-01-01T11:06:35;5.43;;;1.83;;
20138;SDS011;10230;51.502;10.800;2023-01-01T11:09:02;2.13;;;1.50;;
20138;SDS011;10230;51.502;10.800;2023-01-01T11:14:00;6.33;;;2.17;;
20138;SDS011;10230;51.502;10.800;2023-01-01T11:16:32;2.13;;;1.33;;
20138;SDS011;10230;51.502;10.800;2023-01-01T11:19:03;2.53;;;1.63;;
20138;SDS011;10230;51.502;10.800;2023-01-01T11:21:30;3.05;;;1.00;;
20138;SDS011;10230;51.502;10.800;2023-01-01T11:24:08;2.50;;;1.30;;
20138;SDS011;10230;51.502;10.800;2023-01-01T11:26:34;2.15;;;1.05;;
20138;SDS011;10230;51.502;10.800;2023-01-01T11:29:12;2.40;;;0.90;;
20138;SDS011;10230;51.502;10.800;2023-01-01T11:31:43;4.30;;;1.30;;
20138;SDS011;10230;51.502;10.800;2023-01-01T11:34:28;3.13;;;1.13;;
20138;SDS011;10230;51.502;10.800;2023-01-01T11:37:09;2.00;;;1.00;;
20138;SDS011;10230;51.502;10.800;2023-01-01T11:39:36;4.82;;;1.30;;
20138;SDS011;10230;51.502;10.800;2023-01-01T11:42:02;2.42;;;1.05;;
20138;SDS011;10230;51.502;10.800;2023-01-01T11:45:03;5.68;;;1.77;;
20138;SDS011;10230;51.502;10.800;2023-01-01T11:52:34;4.43;;;1.40;;
20138;SDS011;10230;51.502;10.800;2023-01-01T11:55:10;1.63;;;0.93;;
20138;SDS011;10230;51.502;10.800;2023-01-01T11:57:36;1.40;;;1.03;;
20138;SDS011;10230;51.502;10.800;2023-01-01T12:00:04;3.37;;;0.80;;
20138;SDS011;10230;51.502;10.800;2023-01-01T12:02:42;3.97;;;1.03;;
20138;SDS011;10230;51.502;10.800;2023-01-01T12:05:16;1.47;;;0.90;;
20138;SDS011;10230;51.502;10.800;2023-01-01T12:07:43;4.67;;;1.23;;
20138;SDS011;10230;51.502;10.800;2023-01-01T12:12:41;2.95;;;1.23;;
20138;SDS011;10230;51.502;10.800;2023-01-01T12:17:43;3.10;;;0.90;;
20138;SDS011;10230;51.502;10.800;2023-01-01T12:22:40;2.67;;;0.90;;
20138;SDS011;10230;51.502;10.800;2023-01-01T12:25:11;3.00;;;0.80;;
20138;SDS011;10230;51.502;10.800;2023-01-01T12:30:20;1.70;;;0.90;;
20138;SDS011;10230;51.502;10.800;2023-01-01T12:32:53;1.63;;;0.82;;
20138;SDS011;10230;51.502;10.800;2023-01-01T12:40:51;1.77;;;0.90;;
20138;SDS011;10230;51.502;10.800;2023-01-01T12:45:51;2.63;;;0.80;;
20138;SDS011;10230;51.502;10.800;2023-01-01T12:50:50;0.82;;;0.63;;
20138;SDS011;10230;51.502;10.800;2023-01-01T12:56:13;3.25;;;0.77;;
20138;SDS011;10230;51.502;10.800;2023-01-01T12:58:51;1.85;;;1.05;;
20138;SDS011;10230;51.502;10.800;2023-01-01T13:01:20;5.50;;;1.17;;
20138;SDS011;10230;51.502;10.800;2023-01-01T13:03:52;3.88;;;1.00;;
20138;SDS011;10230;51.502;10.800;2023-01-01T13:06:20;2.00;;;1.17;;
20138;SDS011;10230;51.502;10.800;2023-01-01T13:08:50;2.13;;;0.80;;
20138;SDS011;10230;51.502;10.800;2023-01-01T13:11:17;3.47;;;0.98;;
20138;SDS011;10230;51.502;10.800;2023-01-01T13:13:43;3.33;;;0.77;;
20138;SDS011;10230;51.502;10.800;2023-01-01T13:16:10;3.73;;;0.90;;
20138;SDS011;10230;51.502;10.800;2023-01-01T13:18:37;0.87;;;0.80;;
20138;SDS011;10230;51.502;10.800;2023-01-01T13:21:05;4.78;;;1.52;;
20138;SDS011;10230;51.502;10.800;2023-01-01T13:36:45;3.40;;;1.30;;
20138;SDS011;10230;51.502;10.800;2023-01-01T13:39:11;3.50;;;1.10;;
20138;SDS011;10230;51.502;10.800;2023-01-01T13:41:57;2.20;;;0.80;;
20138;SDS011;10230;51.502;10.800;2023-01-01T13:44:23;2.23;;;0.90;;
20138;SDS011;10230;51.502;10.800;2023-01-01T13:57:19;1.83;;;1.20;;
20138;SDS011;10230;51.502;10.800;2023-01-01T14:10:23;4.53;;;1.30;;
20138;SDS011;10230;51.502;10.800;2023-01-01T14:12:50;1.60;;;0.80;;
20138;SDS011;10230;51.502;10.800;2023-01-01T14:15:30;5.10;;;1.10;;
20138;SDS011;10230;51.502;10.800;2023-01-01T14:17:57;2.95;;;1.42;;
20138;SDS011;10230;51.502;10.800;2023-01-01T14:21:09;2.67;;;1.20;;
20138;SDS011;10230;51.502;10.800;2023-01-01T14:23:11;3.63;;;1.10;;
20138;SDS011;10230;51.502;10.800;2023-01-01T14:25:40;3.57;;;0.97;;
20138;SDS011;10230;51.502;10.800;2023-01-01T14:28:11;3.00;;;1.80;;
20138;SDS011;10230;51.502;10.800;2023-01-01T14:30:39;3.78;;;1.25;;
20138;SDS011;10230;51.502;10.800;2023-01-01T14:33:18;3.45;;;1.00;;
20138;SDS011;10230;51.502;10.800;2023-01-01T14:35:52;3.42;;;1.33;;
20138;SDS011;10230;51.502;10.800;2023-01-01T14:38:28;3.20;;;1.40;;
20138;SDS011;10230;51.502;10.800;2023-01-01T14:40:59;2.43;;;0.90;;
20138;SDS011;10230;51.502;10.800;2023-01-01T14:43:26;2.87;;;1.10;;
20138;SDS011;10230;51.502;10.800;2023-01-01T14:45:52;2.57;;;1.10;;
20138;SDS011;10230;51.502;10.800;2023-01-01T14:48:18;1.30;;;0.80;;
20138;SDS011;10230;51.502;10.800;2023-01-01T14:50:48;3.22;;;1.02;;
20138;SDS011;10230;51.502;10.800;2023-01-01T14:53:15;3.33;;;1.15;;
20138;SDS011;10230;51.502;10.800;2023-01-01T14:55:45;2.58;;;0.95;;
20138;SDS011;10230;51.502;10.800;2023-01-01T14:58:18;1.70;;;1.00;;
20138;SDS011;10230;51.502;10.800;2023-01-01T15:00:45;2.72;;;0.80;;
20138;SDS011;10230;51.502;10.800;2023-01-01T15:03:13;2.23;;;1.13;;
20138;SDS011;10230;51.502;10.800;2023-01-01T15:05:39;1.93;;;0.90;;
20138;SDS011;10230;51.502;10.800;2023-01-01T15:08:16;1.73;;;0.98;;
20138;SDS011;10230;51.502;10.800;2023-01-01T15:10:42;1.83;;;0.80;;
20138;SDS011;10230;51.502;10.800;2023-01-01T15:13:12;3.80;;;1.00;;
20138;SDS011;10230;51.502;10.800;2023-01-01T15:15:42;1.33;;;1.00;;
20138;SDS011;10230;51.502;10.800;2023-01-01T15:20:53;2.83;;;1.23;;
20138;SDS011;10230;51.502;10.800;2023-01-01T15:23:20;1.83;;;1.10;;
20138;SDS011;10230;51.502;10.800;2023-01-01T15:25:46;2.37;;;0.83;;
20138;SDS011;10230;51.502;10.800;2023-01-01T15:28:18;1.90;;;0.90;;
20138;SDS011;10230;51.502;10.800;2023-01-01T15:30:45;1.85;;;0.93;;
20138;SDS011;10230;51.502;10.800;2023-01-01T15:33:16;2.77;;;0.83;;
20138;SDS011;10230;51.502;10.800;2023-01-01T15:35:46;4.97;;;1.57;;
20138;SDS011;10230;51.502;10.800;2023-01-01T15:38:23;4.73;;;0.90;;
20138;SDS011;10230;51.502;10.800;2023-01-01T15:40:51;4.93;;;1.20;;
20138;SDS011;10230;51.502;10.800;2023-01-01T15:43:18;3.03;;;0.90;;
20138;SDS011;10230;51.502;10.800;2023-01-01T15:45:54;3.50;;;1.27;;
20138;SDS011;10230;51.502;10.800;2023-01-01T15:53:23;4.13;;;1.97;;
20138;SDS011;10230;51.502;10.800;2023-01-01T15:55:54;2.73;;;1.63;;
20138;SDS011;10230;51.502;10.800;2023-01-01T15:58:22;5.40;;;2.40;;
20138;SDS011;10230;51.502;10.800;2023-01-01T16:00:52;2.47;;;1.27;;
20138;SDS011;10230;51.502;10.800;2023-01-01T16:03:20;4.07;;;1.83;;
20138;SDS011;10230;51.502;10.800;2023-01-01T16:05:48;2.27;;;1.03;;
20138;SDS011;10230;51.502;10.800;2023-01-01T16:08:15;3.00;;;1.03;;
20138;SDS011;10230;51.502;10.800;2023-01-01T16:10:41;4.53;;;1.30;;
20138;SDS011;10230;51.502;10.800;2023-01-01T16:13:07;4.53;;;1.10;;
20138;SDS011;10230;51.502;10.800;2023-01-01T16:15:34;6.07;;;1.30;;
20138;SDS011;10230;51.502;10.800;2023-01-01T16:18:01;2.47;;;1.63;;
20138;SDS011;10230;51.502;10.800;2023-01-01T16:20:27;2.20;;;1.30;;
20138;SDS011;10230;51.502;10.800;2023-01-01T16:22:53;3.53;;;1.43;;
20138;SDS011;10230;51.502;10.800;2023-01-01T16:25:20;2.97;;;1.50;;
20138;SDS011;10230;51.502;10.800;2023-01-01T16:27:46;3.07;;;1.30;;
20138;SDS011;10230;51.502;10.800;2023-01-01T16:30:13;3.43;;;1.30;;
20138;SDS011;10230;51.502;10.800;2023-01-01T16:32:39;3.17;;;1.10;;
20138;SDS011;10230;51.502;10.800;2023-01-01T16:35:09;5.63;;;1.63;;
20138;SDS011;10230;51.502;10.800;2023-01-01T16:37:36;4.37;;;1.40;;
20138;SDS011;10230;51.502;10.800;2023-01-01T16:40:02;6.00;;;1.92;;